sensor_id;sensor_type;location;lat;lon;timestamp;temperature;humidity
66670;DHT22;53568;52.164;4.472;2023-04-01T00:00:56;10.96;85.73
66670;DHT22;53568;52.164;4.472;2023-04-01T00:03:23;10.95;85.68
66670;DHT22;53568;52.164;4.472;2023-04-01T00:05:49;10.88;85.71
66670;DHT22;53568;52.164;4.472;2023-04-01T00:08:15;10.90;85.81
66670;DHT22;53568;52.164;4.472;2023-04-01T00:10:40;10.86;85.86
66670;DHT22;53568;52.164;4.472;2023-04-01T00:13:06;10.92;85.84
66670;DHT22;53568;52.164;4.472;2023-04-01T00:15:33;10.84;85.92
66670;DHT22;53568;52.164;4.472;2023-04-01T00:17:59;10.89;85.87
66670;DHT22;53568;52.164;4.472;2023-04-01T00:20:26;10.88;85.87
66670;DHT22;53568;52.164;4.472;2023-04-01T00:22:51;10.89;85.93
66670;DHT22;53568;52.164;4.472;2023-04-01T00:25:17;10.96;85.81
66670;DHT22;53568;52.164;4.472;2023-04-01T00:27:44;10.90;85.74
66670;DHT22;53568;52.164;4.472;2023-04-01T00:30:10;10.83;85.92
66670;DHT22;53568;52.164;4.472;2023-04-01T00:32:35;10.89;85.89
66670;DHT22;53568;52.164;4.472;2023-04-01T00:35:02;10.90;85.84
66670;DHT22;53568;52.164;4.472;2023-04-01T00:37:28;10.82;85.88
66670;DHT22;53568;52.164;4.472;2023-04-01T00:39:54;10.79;86.17
66670;DHT22;53568;52.164;4.472;2023-04-01T00:42:20;10.82;86.14
66670;DHT22;53568;52.164;4.472;2023-04-01T00:44:51;10.79;86.09
66670;DHT22;53568;52.164;4.472;2023-04-01T00:47:18;10.80;86.15
66670;DHT22;53568;52.164;4.472;2023-04-01T00:49:48;10.68;86.32
66670;DHT22;53568;52.164;4.472;2023-04-01T00:52:19;10.76;86.17
66670;DHT22;53568;52.164;4.472;2023-04-01T00:54:49;10.75;86.26
66670;DHT22;53568;52.164;4.472;2023-04-01T00:57:33;10.79;86.22
66670;DHT22;53568;52.164;4.472;2023-04-01T01:00:00;10.77;86.22
66670;DHT22;53568;52.164;4.472;2023-04-01T01:02:26;10.72;86.32
66670;DHT22;53568;52.164;4.472;2023-04-01T01:04:51;10.62;86.59
66670;DHT22;53568;52.164;4.472;2023-04-01T01:10:13;10.62;87.09
66670;DHT22;53568;52.164;4.472;2023-04-01T01:13:02;10.55;87.26
66670;DHT22;53568;52.164;4.472;2023-04-01T01:37:00;10.56;87.48
66670;DHT22;53568;52.164;4.472;2023-04-01T01:39:30;10.50;87.50
66670;DHT22;53568;52.164;4.472;2023-04-01T01:42:02;10.49;87.65
66670;DHT22;53568;52.164;4.472;2023-04-01T01:44:31;10.48;87.78
66670;DHT22;53568;52.164;4.472;2023-04-01T01:46:59;10.50;87.77
66670;DHT22;53568;52.164;4.472;2023-04-01T01:49:27;10.55;87.91
66670;DHT22;53568;52.164;4.472;2023-04-01T01:51:56;10.44;88.29
66670;DHT22;53568;52.164;4.472;2023-04-01T01:54:21;10.50;88.15
66670;DHT22;53568;52.164;4.472;2023-04-01T01:56:51;10.45;88.03
66670;DHT22;53568;52.164;4.472;2023-04-01T01:59:21;10.42;88.44
66670;DHT22;53568;52.164;4.472;2023-04-01T02:01:55;10.44;88.14
66670;DHT22;53568;52.164;4.472;2023-04-01T02:04:22;10.45;88.40
66670;DHT22;53568;52.164;4.472;2023-04-01T02:06:56;10.50;88.36
66670;DHT22;53568;52.164;4.472;2023-04-01T02:09:23;10.56;88.26
66670;DHT22;53568;52.164;4.472;2023-04-01T02:11:53;10.38;88.34
66670;DHT22;53568;52.164;4.472;2023-04-01T02:14:41;10.42;88.58
66670;DHT22;53568;52.164;4.472;2023-04-01T02:17:09;10.45;88.56
66670;DHT22;53568;52.164;4.472;2023-04-01T02:19:47;10.55;88.35
66670;DHT22;53568;52.164;4.472;2023-04-01T02:22:18;10.45;88.53
66670;DHT22;53568;52.164;4.472;2023-04-01T02:24:45;10.52;88.56
66670;DHT22;53568;52.164;4.472;2023-04-01T02:27:12;10.55;88.56
66670;DHT22;53568;52.164;4.472;2023-04-01T02:29:39;10.55;88.49
66670;DHT22;53568;52.164;4.472;2023-04-01T02:32:06;10.60;88.42
66670;DHT22;53568;52.164;4.472;2023-04-01T02:34:33;10.70;88.25
66670;DHT22;53568;52.164;4.472;2023-04-01T02:36:59;10.76;88.10
66670;DHT22;53568;52.164;4.472;2023-04-01T02:39:24;10.72;88.17
66670;DHT22;53568;52.164;4.472;2023-04-01T02:41:52;10.69;88.25
66670;DHT22;53568;52.164;4.472;2023-04-01T02:44:17;10.68;88.52
66670;DHT22;53568;52.164;4.472;2023-04-01T02:46:43;10.66;88.52
66670;DHT22;53568;52.164;4.472;2023-04-01T02:49:09;10.65;88.47
66670;DHT22;53568;52.164;4.472;2023-04-01T02:51:34;10.60;88.69
66670;DHT22;53568;52.164;4.472;2023-04-01T02:54:00;10.59;88.92
66670;DHT22;53568;52.164;4.472;2023-04-01T02:56:26;10.70;88.74
66670;DHT22;53568;52.164;4.472;2023-04-01T02:58:53;10.72;88.46
66670;DHT22;53568;52.164;4.472;2023-04-01T03:01:19;10.70;88.63
66670;DHT22;53568;52.164;4.472;2023-04-01T03:03:45;10.55;88.92
66670;DHT22;53568;52.164;4.472;2023-04-01T03:06:13;10.49;89.16
66670;DHT22;53568;52.164;4.472;2023-04-01T03:08:40;10.45;89.56
66670;DHT22;53568;52.164;4.472;2023-04-01T03:11:05;10.44;89.93
66670;DHT22;53568;52.164;4.472;2023-04-01T03:13:32;10.50;89.74
66670;DHT22;53568;52.164;4.472;2023-04-01T03:15:57;10.32;90.20
66670;DHT22;53568;52.164;4.472;2023-04-01T03:18:23;10.38;89.97
66670;DHT22;53568;52.164;4.472;2023-04-01T03:20:48;10.39;90.02
66670;DHT22;53568;52.164;4.472;2023-04-01T03:23:14;10.36;90.10
66670;DHT22;53568;52.164;4.472;2023-04-01T03:25:41;10.32;89.97
66670;DHT22;53568;52.164;4.472;2023-04-01T03:28:07;10.29;90.26
66670;DHT22;53568;52.164;4.472;2023-04-01T03:30:32;10.26;90.35
66670;DHT22;53568;52.164;4.472;2023-04-01T03:32:58;10.26;90.45
66670;DHT22;53568;52.164;4.472;2023-04-01T03:35:26;10.31;90.24
66670;DHT22;53568;52.164;4.472;2023-04-01T03:37:52;10.29;90.37
66670;DHT22;53568;52.164;4.472;2023-04-01T03:40:18;10.34;90.25
66670;DHT22;53568;52.164;4.472;2023-04-01T03:42:43;10.24;90.52
66670;DHT22;53568;52.164;4.472;2023-04-01T03:45:10;10.28;90.58
66670;DHT22;53568;52.164;4.472;2023-04-01T03:47:37;10.29;90.65
66670;DHT22;53568;52.164;4.472;2023-04-01T03:50:03;10.25;90.33
66670;DHT22;53568;52.164;4.472;2023-04-01T03:52:29;10.24;90.53
66670;DHT22;53568;52.164;4.472;2023-04-01T03:54:55;10.24;90.10
66670;DHT22;53568;52.164;4.472;2023-04-01T03:57:23;10.19;90.19
66670;DHT22;53568;52.164;4.472;2023-04-01T03:59:48;10.14;90.06
66670;DHT22;53568;52.164;4.472;2023-04-01T04:02:14;10.09;90.48
66670;DHT22;53568;52.164;4.472;2023-04-01T04:04:39;10.18;90.21
66670;DHT22;53568;52.164;4.472;2023-04-01T04:07:06;10.04;90.02
66670;DHT22;53568;52.164;4.472;2023-04-01T04:09:32;10.15;90.06
66670;DHT22;53568;52.164;4.472;2023-04-01T04:11:58;10.16;90.11
66670;DHT22;53568;52.164;4.472;2023-04-01T04:14:24;10.11;89.87
66670;DHT22;53568;52.164;4.472;2023-04-01T04:16:50;10.11;90.05
66670;DHT22;53568;52.164;4.472;2023-04-01T04:19:15;10.12;89.97
66670;DHT22;53568;52.164;4.472;2023-04-01T04:21:41;10.21;89.91
66670;DHT22;53568;52.164;4.472;2023-04-01T04:24:08;10.16;89.65
66670;DHT22;53568;52.164;4.472;2023-04-01T04:26:34;10.18;89.83
66670;DHT22;53568;52.164;4.472;2023-04-01T04:29:00;10.15;89.73
66670;DHT22;53568;52.164;4.472;2023-04-01T04:31:27;10.15;90.06
66670;DHT22;53568;52.164;4.472;2023-04-01T04:33:53;10.11;89.92
66670;DHT22;53568;52.164;4.472;2023-04-01T04:36:20;10.16;89.84
66670;DHT22;53568;52.164;4.472;2023-04-01T04:38:47;10.15;89.79
66670;DHT22;53568;52.164;4.472;2023-04-01T04:41:14;10.21;89.58
66670;DHT22;53568;52.164;4.472;2023-04-01T04:43:41;10.16;89.52
66670;DHT22;53568;52.164;4.472;2023-04-01T04:46:08;10.06;89.66
66670;DHT22;53568;52.164;4.472;2023-04-01T04:48:35;10.16;89.78
66670;DHT22;53568;52.164;4.472;2023-04-01T04:51:01;10.15;89.61
66670;DHT22;53568;52.164;4.472;2023-04-01T04:53:27;10.05;89.93
66670;DHT22;53568;52.164;4.472;2023-04-01T04:55:53;9.97;90.12
66670;DHT22;53568;52.164;4.472;2023-04-01T04:58:19;9.90;90.33
66670;DHT22;53568;52.164;4.472;2023-04-01T05:00:46;9.94;90.71
66670;DHT22;53568;52.164;4.472;2023-04-01T05:03:13;9.94;90.65
66670;DHT22;53568;52.164;4.472;2023-04-01T05:05:39;9.87;90.52
66670;DHT22;53568;52.164;4.472;2023-04-01T05:08:05;9.95;90.46
66670;DHT22;53568;52.164;4.472;2023-04-01T05:10:31;10.01;90.46
66670;DHT22;53568;52.164;4.472;2023-04-01T05:12:57;10.01;90.32
66670;DHT22;53568;52.164;4.472;2023-04-01T05:15:24;10.05;90.31
66670;DHT22;53568;52.164;4.472;2023-04-01T05:17:50;10.01;90.01
66670;DHT22;53568;52.164;4.472;2023-04-01T05:20:16;9.98;90.39
66670;DHT22;53568;52.164;4.472;2023-04-01T05:22:42;9.99;90.13
66670;DHT22;53568;52.164;4.472;2023-04-01T05:25:08;9.91;90.33
66670;DHT22;53568;52.164;4.472;2023-04-01T05:27:35;9.94;90.52
66670;DHT22;53568;52.164;4.472;2023-04-01T05:30:01;9.92;90.43
66670;DHT22;53568;52.164;4.472;2023-04-01T05:32:26;9.92;90.33
66670;DHT22;53568;52.164;4.472;2023-04-01T05:34:52;9.78;90.59
66670;DHT22;53568;52.164;4.472;2023-04-01T05:37:18;9.85;90.46
66670;DHT22;53568;52.164;4.472;2023-04-01T05:39:44;9.84;90.38
66670;DHT22;53568;52.164;4.472;2023-04-01T05:42:09;9.90;90.46
66670;DHT22;53568;52.164;4.472;2023-04-01T05:44:35;9.88;90.44
66670;DHT22;53568;52.164;4.472;2023-04-01T05:47:02;9.90;90.28
66670;DHT22;53568;52.164;4.472;2023-04-01T05:49:28;9.88;90.36
66670;DHT22;53568;52.164;4.472;2023-04-01T05:51:53;9.85;90.58
66670;DHT22;53568;52.164;4.472;2023-04-01T05:54:19;9.82;90.50
66670;DHT22;53568;52.164;4.472;2023-04-01T05:56:45;9.87;90.31
66670;DHT22;53568;52.164;4.472;2023-04-01T05:59:11;9.73;90.71
66670;DHT22;53568;52.164;4.472;2023-04-01T06:01:37;9.71;90.96
66670;DHT22;53568;52.164;4.472;2023-04-01T06:04:03;9.70;90.81
66670;DHT22;53568;52.164;4.472;2023-04-01T06:06:30;9.64;90.81
66670;DHT22;53568;52.164;4.472;2023-04-01T06:09:07;9.65;90.85
66670;DHT22;53568;52.164;4.472;2023-04-01T06:11:51;9.67;90.89
66670;DHT22;53568;52.164;4.472;2023-04-01T06:19:51;9.65;91.26
66670;DHT22;53568;52.164;4.472;2023-04-01T06:25:59;9.71;90.91
66670;DHT22;53568;52.164;4.472;2023-04-01T06:31:03;9.82;90.91
66670;DHT22;53568;52.164;4.472;2023-04-01T06:50:24;9.78;91.17
66670;DHT22;53568;52.164;4.472;2023-04-01T06:53:20;9.77;91.00
66670;DHT22;53568;52.164;4.472;2023-04-01T06:55:53;9.74;90.88
66670;DHT22;53568;52.164;4.472;2023-04-01T06:58:41;9.69;91.34
66670;DHT22;53568;52.164;4.472;2023-04-01T07:01:18;9.73;91.09
66670;DHT22;53568;52.164;4.472;2023-04-01T07:06:58;9.73;90.86
66670;DHT22;53568;52.164;4.472;2023-04-01T07:09:34;9.67;91.19
66670;DHT22;53568;52.164;4.472;2023-04-01T07:12:09;9.71;91.13
66670;DHT22;53568;52.164;4.472;2023-04-01T07:14:39;9.82;91.04
66670;DHT22;53568;52.164;4.472;2023-04-01T07:17:15;9.78;90.96
66670;DHT22;53568;52.164;4.472;2023-04-01T07:22:32;9.71;91.26
66670;DHT22;53568;52.164;4.472;2023-04-01T07:25:05;9.80;90.92
66670;DHT22;53568;52.164;4.472;2023-04-01T07:27:36;9.69;90.92
66670;DHT22;53568;52.164;4.472;2023-04-01T07:30:06;9.67;91.05
66670;DHT22;53568;52.164;4.472;2023-04-01T07:35:54;9.69;91.11
66670;DHT22;53568;52.164;4.472;2023-04-01T07:38:54;9.70;91.09
66670;DHT22;53568;52.164;4.472;2023-04-01T07:47:23;9.74;90.60
66670;DHT22;53568;52.164;4.472;2023-04-01T07:55:18;9.70;90.96
66670;DHT22;53568;52.164;4.472;2023-04-01T08:06:19;9.88;90.34
66670;DHT22;53568;52.164;4.472;2023-04-01T08:22:27;10.01;89.68
66670;DHT22;53568;52.164;4.472;2023-04-01T08:24:57;9.92;89.82
66670;DHT22;53568;52.164;4.472;2023-04-01T08:27:35;10.01;89.72
66670;DHT22;53568;52.164;4.472;2023-04-01T08:30:21;10.04;89.75
66670;DHT22;53568;52.164;4.472;2023-04-01T08:32:58;9.92;89.93
66670;DHT22;53568;52.164;4.472;2023-04-01T08:35:29;9.98;90.08
66670;DHT22;53568;52.164;4.472;2023-04-01T08:38:01;10.02;90.01
66670;DHT22;53568;52.164;4.472;2023-04-01T08:41:00;10.04;89.87
66670;DHT22;53568;52.164;4.472;2023-04-01T08:43:42;9.95;89.81
66670;DHT22;53568;52.164;4.472;2023-04-01T08:46:17;9.88;90.46
66670;DHT22;53568;52.164;4.472;2023-04-01T08:49:13;9.92;90.53
66670;DHT22;53568;52.164;4.472;2023-04-01T09:01:58;9.94;90.48
66670;DHT22;53568;52.164;4.472;2023-04-01T09:04:50;9.92;90.62
66670;DHT22;53568;52.164;4.472;2023-04-01T09:13:05;9.95;90.17
66670;DHT22;53568;52.164;4.472;2023-04-01T09:19:04;10.01;90.37
66670;DHT22;53568;52.164;4.472;2023-04-01T09:26:42;10.28;89.67
66670;DHT22;53568;52.164;4.472;2023-04-01T09:29:29;10.14;89.56
66670;DHT22;53568;52.164;4.472;2023-04-01T09:32:10;10.22;89.72
66670;DHT22;53568;52.164;4.472;2023-04-01T09:35:00;10.18;89.83
66670;DHT22;53568;52.164;4.472;2023-04-01T09:43:16;10.01;90.16
66670;DHT22;53568;52.164;4.472;2023-04-01T10:02:13;10.22;89.92
66670;DHT22;53568;52.164;4.472;2023-04-01T10:21:25;10.26;89.89
66670;DHT22;53568;52.164;4.472;2023-04-01T10:24:24;10.15;90.24
66670;DHT22;53568;52.164;4.472;2023-04-01T10:38:15;10.35;89.68
66670;DHT22;53568;52.164;4.472;2023-04-01T10:41:08;10.19;89.61
66670;DHT22;53568;52.164;4.472;2023-04-01T10:46:57;10.31;89.77
66670;DHT22;53568;52.164;4.472;2023-04-01T10:52:49;10.42;89.20
66670;DHT22;53568;52.164;4.472;2023-04-01T11:18:53;10.52;88.93
66670;DHT22;53568;52.164;4.472;2023-04-01T11:27:25;10.52;89.07
66670;DHT22;53568;52.164;4.472;2023-04-01T11:35:25;10.49;88.93
66670;DHT22;53568;52.164;4.472;2023-04-01T11:41:25;10.58;88.81
66670;DHT22;53568;52.164;4.472;2023-04-01T11:49:05;10.65;88.72
66670;DHT22;53568;52.164;4.472;2023-04-01T11:54:10;10.53;89.05
66670;DHT22;53568;52.164;4.472;2023-04-01T11:59:55;10.75;89.45
66670;DHT22;53568;52.164;4.472;2023-04-01T12:05:41;10.84;89.03
66670;DHT22;53568;52.164;4.472;2023-04-01T12:11:09;10.83;88.61
66670;DHT22;53568;52.164;4.472;2023-04-01T12:13:53;10.82;88.55
66670;DHT22;53568;52.164;4.472;2023-04-01T12:22:19;11.04;88.45
66670;DHT22;53568;52.164;4.472;2023-04-01T12:25:13;11.04;88.36
66670;DHT22;53568;52.164;4.472;2023-04-01T12:39:11;11.02;88.43
66670;DHT22;53568;52.164;4.472;2023-04-01T12:50:29;11.16;87.73
66670;DHT22;53568;52.164;4.472;2023-04-01T12:55:49;11.00;88.11
66670;DHT22;53568;52.164;4.472;2023-04-01T13:09:45;11.14;86.83
66670;DHT22;53568;52.164;4.472;2023-04-01T13:15:26;11.06;86.87
66670;DHT22;53568;52.164;4.472;2023-04-01T13:26:28;11.34;86.24
66670;DHT22;53568;52.164;4.472;2023-04-01T13:29:18;11.40;85.79
66670;DHT22;53568;52.164;4.472;2023-04-01T13:39:40;11.26;85.65
66670;DHT22;53568;52.164;4.472;2023-04-01T13:42:18;11.43;85.77
66670;DHT22;53568;52.164;4.472;2023-04-01T13:45:15;11.40;85.89
66670;DHT22;53568;52.164;4.472;2023-04-01T14:01:48;11.51;85.12
66670;DHT22;53568;52.164;4.472;2023-04-01T14:04:27;11.54;85.28
66670;DHT22;53568;52.164;4.472;2023-04-01T14:07:18;11.40;85.53
66670;DHT22;53568;52.164;4.472;2023-04-01T14:22:56;11.34;86.02
66670;DHT22;53568;52.164;4.472;2023-04-01T14:36:28;11.00;87.71
66670;DHT22;53568;52.164;4.472;2023-04-01T14:41:51;10.93;87.89
66670;DHT22;53568;52.164;4.472;2023-04-01T14:47:28;11.13;87.74
66670;DHT22;53568;52.164;4.472;2023-04-01T14:50:14;11.14;87.87
66670;DHT22;53568;52.164;4.472;2023-04-01T14:53:11;11.20;87.94
66670;DHT22;53568;52.164;4.472;2023-04-01T14:58:12;11.16;87.79
66670;DHT22;53568;52.164;4.472;2023-04-01T15:00:55;11.12;87.92
66670;DHT22;53568;52.164;4.472;2023-04-01T15:03:52;11.24;87.88
66670;DHT22;53568;52.164;4.472;2023-04-01T15:09:06;11.22;88.00
66670;DHT22;53568;52.164;4.472;2023-04-01T15:11:48;11.27;87.96
66670;DHT22;53568;52.164;4.472;2023-04-01T15:17:14;11.37;87.65
66670;DHT22;53568;52.164;4.472;2023-04-01T15:31:21;11.33;87.60
66670;DHT22;53568;52.164;4.472;2023-04-01T15:45:44;11.38;87.19
66670;DHT22;53568;52.164;4.472;2023-04-01T15:50:58;11.38;87.68
66670;DHT22;53568;52.164;4.472;2023-04-01T15:53:37;11.51;87.30
66670;DHT22;53568;52.164;4.472;2023-04-01T16:01:59;11.61;86.38
66670;DHT22;53568;52.164;4.472;2023-04-01T16:10:29;11.73;86.24
66670;DHT22;53568;52.164;4.472;2023-04-01T16:15:57;11.68;85.66
66670;DHT22;53568;52.164;4.472;2023-04-01T16:21:44;11.58;84.96
66670;DHT22;53568;52.164;4.472;2023-04-01T16:26:55;11.60;84.84
66670;DHT22;53568;52.164;4.472;2023-04-01T16:29:47;11.47;85.35
66670;DHT22;53568;52.164;4.472;2023-04-01T16:32:33;11.44;85.43
66670;DHT22;53568;52.164;4.472;2023-04-01T16:35:28;11.46;85.59
66670;DHT22;53568;52.164;4.472;2023-04-01T16:41:07;11.34;85.40
66670;DHT22;53568;52.164;4.472;2023-04-01T16:43:49;11.36;84.95
66670;DHT22;53568;52.164;4.472;2023-04-01T16:51:48;11.13;84.96
66670;DHT22;53568;52.164;4.472;2023-04-01T16:56:54;11.17;84.80
66670;DHT22;53568;52.164;4.472;2023-04-01T16:59:33;11.24;84.45
66670;DHT22;53568;52.164;4.472;2023-04-01T17:04:33;11.22;84.34
66670;DHT22;53568;52.164;4.472;2023-04-01T17:07:19;11.17;84.36
66670;DHT22;53568;52.164;4.472;2023-04-01T17:15:36;10.93;84.91
66670;DHT22;53568;52.164;4.472;2023-04-01T17:18:55;11.00;84.62
66670;DHT22;53568;52.164;4.472;2023-04-01T17:26:56;11.03;84.04
66670;DHT22;53568;52.164;4.472;2023-04-01T17:29:36;10.89;84.59
66670;DHT22;53568;52.164;4.472;2023-04-01T17:35:05;10.72;84.63
66670;DHT22;53568;52.164;4.472;2023-04-01T17:52:04;10.70;84.29
66670;DHT22;53568;52.164;4.472;2023-04-01T17:54:47;10.66;84.01
66670;DHT22;53568;52.164;4.472;2023-04-01T18:03:06;10.58;84.31
66670;DHT22;53568;52.164;4.472;2023-04-01T18:08:42;10.63;84.26
66670;DHT22;53568;52.164;4.472;2023-04-01T18:22:08;10.66;83.73
66670;DHT22;53568;52.164;4.472;2023-04-01T18:25:19;10.72;83.43
66670;DHT22;53568;52.164;4.472;2023-04-01T18:30:54;10.49;83.79
66670;DHT22;53568;52.164;4.472;2023-04-01T18:33:25;10.38;83.54
66670;DHT22;53568;52.164;4.472;2023-04-01T18:38:52;10.41;83.48
66670;DHT22;53568;52.164;4.472;2023-04-01T18:41:51;10.46;83.24
66670;DHT22;53568;52.164;4.472;2023-04-01T18:47:41;10.25;83.84
66670;DHT22;53568;52.164;4.472;2023-04-01T18:52:44;10.24;84.04
66670;DHT22;53568;52.164;4.472;2023-04-01T18:55:22;10.24;84.01
66670;DHT22;53568;52.164;4.472;2023-04-01T18:57:51;10.22;83.80
66670;DHT22;53568;52.164;4.472;2023-04-01T19:00:34;10.31;83.75
66670;DHT22;53568;52.164;4.472;2023-04-01T19:03:11;10.31;83.20
66670;DHT22;53568;52.164;4.472;2023-04-01T19:05:45;10.18;83.38
66670;DHT22;53568;52.164;4.472;2023-04-01T19:08:28;10.31;83.09
66670;DHT22;53568;52.164;4.472;2023-04-01T19:14:23;9.92;83.22
66670;DHT22;53568;52.164;4.472;2023-04-01T19:22:50;10.05;83.29
66670;DHT22;53568;52.164;4.472;2023-04-01T19:25:35;10.08;83.07
66670;DHT22;53568;52.164;4.472;2023-04-01T19:30:51;10.08;83.04
66670;DHT22;53568;52.164;4.472;2023-04-01T19:36:48;9.78;83.19
66670;DHT22;53568;52.164;4.472;2023-04-01T19:41:57;9.80;83.61
66670;DHT22;53568;52.164;4.472;2023-04-01T19:44:47;9.87;83.18
66670;DHT22;53568;52.164;4.472;2023-04-01T19:47:52;9.58;83.22
66670;DHT22;53568;52.164;4.472;2023-04-01T19:50:43;9.47;83.76
66670;DHT22;53568;52.164;4.472;2023-04-01T19:53:22;9.69;83.52
66670;DHT22;53568;52.164;4.472;2023-04-01T19:59:22;9.52;83.79
66670;DHT22;53568;52.164;4.472;2023-04-01T20:04:26;9.51;83.67
66670;DHT22;53568;52.164;4.472;2023-04-01T20:07:16;9.41;83.74
66670;DHT22;53568;52.164;4.472;2023-04-01T20:09:49;9.43;83.31
66670;DHT22;53568;52.164;4.472;2023-04-01T20:12:38;9.36;83.34
66670;DHT22;53568;52.164;4.472;2023-04-01T20:17:48;9.28;83.62
66670;DHT22;53568;52.164;4.472;2023-04-01T20:20:26;9.31;83.55
66670;DHT22;53568;52.164;4.472;2023-04-01T20:23:04;9.28;83.65
66670;DHT22;53568;52.164;4.472;2023-04-01T20:25:49;9.34;83.17
66670;DHT22;53568;52.164;4.472;2023-04-01T20:39:24;9.06;83.84
66670;DHT22;53568;52.164;4.472;2023-04-01T20:50:37;8.99;84.03
66670;DHT22;53568;52.164;4.472;2023-04-01T20:58:28;8.96;84.04
66670;DHT22;53568;52.164;4.472;2023-04-01T21:01:12;8.86;83.86
66670;DHT22;53568;52.164;4.472;2023-04-01T21:22:59;8.89;83.40
66670;DHT22;53568;52.164;4.472;2023-04-01T21:42:54;8.89;83.11
66670;DHT22;53568;52.164;4.472;2023-04-01T21:45:37;8.90;83.06
66670;DHT22;53568;52.164;4.472;2023-04-01T21:48:23;8.96;82.62
66670;DHT22;53568;52.164;4.472;2023-04-01T22:05:11;8.65;83.20
66670;DHT22;53568;52.164;4.472;2023-04-01T22:15:56;8.83;82.20
66670;DHT22;53568;52.164;4.472;2023-04-01T22:18:44;8.59;81.88
66670;DHT22;53568;52.164;4.472;2023-04-01T22:21:49;8.72;81.62
66670;DHT22;53568;52.164;4.472;2023-04-01T22:24:52;8.61;82.40
66670;DHT22;53568;52.164;4.472;2023-04-01T22:27:56;8.58;82.44
66670;DHT22;53568;52.164;4.472;2023-04-01T22:30:33;8.62;82.33
66670;DHT22;53568;52.164;4.472;2023-04-01T22:41:22;8.52;82.75
66670;DHT22;53568;52.164;4.472;2023-04-01T22:43:56;8.69;82.63
66670;DHT22;53568;52.164;4.472;2023-04-01T22:55:16;8.51;82.21
66670;DHT22;53568;52.164;4.472;2023-04-01T22:57:58;8.45;82.46
66670;DHT22;53568;52.164;4.472;2023-04-01T23:03:31;8.28;82.54
66670;DHT22;53568;52.164;4.472;2023-04-01T23:06:00;8.25;82.74
66670;DHT22;53568;52.164;4.472;2023-04-01T23:24:59;8.29;82.10
66670;DHT22;53568;52.164;4.472;2023-04-01T23:27:33;8.34;81.80
66670;DHT22;53568;52.164;4.472;2023-04-01T23:30:02;8.12;81.96
66670;DHT22;53568;52.164;4.472;2023-04-01T23:32:29;8.20;82.29
66670;DHT22;53568;52.164;4.472;2023-04-01T23:34:58;8.27;81.86
66670;DHT22;53568;52.164;4.472;2023-04-01T23:37:26;8.11;82.31
66670;DHT22;53568;52.164;4.472;2023-04-01T23:39:57;7.93;82.38
66670;DHT22;53568;52.164;4.472;2023-04-01T23:42:33;7.74;83.01
66670;DHT22;53568;52.164;4.472;2023-04-01T23:45:15;7.91;82.78
66670;DHT22;53568;52.164;4.472;2023-04-01T23:47:46;7.95;82.50
66670;DHT22;53568;52.164;4.472;2023-04-01T23:50:20;7.85;82.78
66670;DHT22;53568;52.164;4.472;2023-04-01T23:52:53;7.93;82.50
66670;DHT22;53568;52.164;4.472;2023-04-01T23:55:27;7.88;82.77
